Time;durP1;ratioP1;P1;durP2;ratioP2;P2;SDS_P1;SDS_P2;PMS_P1;PMS_P2;Temp;Humidity;BMP_temperature;BMP_pressure;BME280_temperature;BME280_humidity;BME280_pressure;Samples;Min_cycle;Max_cycle;Signal;HPM_P1;HPM_P2
2022/09/06 00:01:23;;;;;;;13.23;6.20;;;22.00;99.90;;;;;;5052707;28;20166;-49
2022/09/06 00:03:49;;;;;;;9.13;3.63;;;22.10;99.90;;;;;;5052792;28;20163;-49
2022/09/06 00:06:18;;;;;;;14.23;3.80;;;21.90;99.90;;;;;;5052814;28;20533;-50
2022/09/06 00:08:45;;;;;;;36.28;9.02;;;21.70;99.90;;;;;;5052978;28;20569;-50
2022/09/06 00:11:11;;;;;;;16.20;4.32;;;21.60;99.90;;;;;;5053176;28;20186;-50
2022/09/06 00:13:37;;;;;;;13.52;2.55;;;21.40;99.90;;;;;;5051221;28;20167;-49
2022/09/06 00:16:05;;;;;;;4.13;2.25;;;21.30;99.90;;;;;;5051952;28;20285;-50
2022/09/06 00:18:30;;;;;;;6.90;2.50;;;21.20;99.90;;;;;;5052887;28;20165;-50
2022/09/06 00:20:56;;;;;;;3.90;2.13;;;21.10;99.90;;;;;;5052901;28;20170;-50
2022/09/06 00:23:21;;;;;;;10.48;2.70;;;21.00;99.90;;;;;;5052479;28;20167;-51
2022/09/06 00:25:47;;;;;;;7.43;2.50;;;21.00;99.90;;;;;;5052465;28;20200;-50
2022/09/06 00:28:14;;;;;;;6.85;3.00;;;20.80;99.90;;;;;;5052205;28;20166;-51
2022/09/06 00:30:40;;;;;;;11.57;3.15;;;20.60;99.90;;;;;;5052134;28;20206;-51
2022/09/06 00:33:05;;;;;;;8.75;3.00;;;20.40;99.90;;;;;;5052648;28;20171;-50
2022/09/06 00:35:31;;;;;;;10.20;3.63;;;20.20;99.90;;;;;;5052361;28;20205;-50
2022/09/06 00:37:58;;;;;;;6.88;3.60;;;20.20;99.90;;;;;;5052531;28;20175;-51
2022/09/06 00:40:24;;;;;;;11.10;3.45;;;20.10;99.90;;;;;;5052262;28;20162;-52
2022/09/06 00:42:50;;;;;;;9.23;4.13;;;20.00;99.90;;;;;;5052227;28;20167;-51
2022/09/06 00:45:16;;;;;;;10.15;3.92;;;20.00;99.90;;;;;;5052419;28;20171;-51
2022/09/06 00:47:43;;;;;;;9.63;4.05;;;20.00;99.90;;;;;;5052465;28;20177;-51
2022/09/06 00:50:10;;;;;;;5.82;3.80;;;20.00;99.90;;;;;;5052589;28;20220;-51
2022/09/06 00:52:38;;;;;;;5.68;4.22;;;20.00;99.90;;;;;;5052049;28;20162;-51
2022/09/06 00:55:04;;;;;;;7.43;3.70;;;20.00;99.90;;;;;;5052016;28;20171;-51
2022/09/06 00:57:31;;;;;;;8.82;4.35;;;20.00;99.90;;;;;;5051829;28;20688;-51
2022/09/06 00:59:58;;;;;;;9.00;3.95;;;20.10;99.90;;;;;;5051757;28;20623;-50
2022/09/06 01:02:24;;;;;;;7.20;4.55;;;19.80;99.90;;;;;;5051520;28;20177;-51
2022/09/06 01:04:50;;;;;;;4.97;3.80;;;19.70;99.90;;;;;;5052119;28;20560;-50
2022/09/06 01:07:41;;;;;;;8.02;3.80;;;19.60;99.90;;;;;;5051850;28;20180;-50
2022/09/06 01:10:39;;;;;;;7.50;4.30;;;19.60;99.90;;;;;;5050557;28;20210;-50
2022/09/06 01:13:34;;;;;;;6.85;4.50;;;19.70;99.90;;;;;;5051794;28;20159;-50
2022/09/06 01:16:11;;;;;;;4.88;4.00;;;19.90;99.90;;;;;;5051516;28;20210;-50
2022/09/06 01:19:08;;;;;;;6.32;4.22;;;20.00;99.90;;;;;;5051762;28;20166;-50
2022/09/06 01:21:49;;;;;;;7.45;4.97;;;19.90;99.90;;;;;;5050374;28;20166;-50
2022/09/06 01:24:38;;;;;;;7.93;4.03;;;19.90;99.90;;;;;;5051646;28;20159;-50
2022/09/06 01:27:14;;;;;;;7.25;4.65;;;20.00;99.90;;;;;;5051588;28;20167;-50
2022/09/06 01:29:45;;;;;;;9.35;3.78;;;20.00;99.90;;;;;;5052109;28;20255;-50
2022/09/06 01:32:25;;;;;;;7.22;3.92;;;19.90;99.90;;;;;;5051942;28;20163;-50
2022/09/06 01:34:57;;;;;;;6.88;4.55;;;19.70;99.90;;;;;;5051628;28;20166;-50
2022/09/06 01:37:23;;;;;;;8.15;4.70;;;19.70;99.90;;;;;;5051505;28;20591;-51
2022/09/06 01:39:48;;;;;;;6.68;4.20;;;19.70;99.90;;;;;;5051570;28;20171;-50
2022/09/06 01:42:24;;;;;;;5.85;4.47;;;19.80;99.90;;;;;;5051467;28;20178;-51
2022/09/06 01:44:55;;;;;;;7.53;4.47;;;19.80;99.90;;;;;;5051546;28;20201;-51
2022/09/06 01:47:30;;;;;;;6.03;4.00;;;19.80;99.90;;;;;;5051505;28;20162;-50
2022/09/06 01:50:02;;;;;;;12.32;4.45;;;19.70;99.90;;;;;;5051434;28;20237;-51
2022/09/06 01:53:08;;;;;;;9.27;4.50;;;19.60;99.90;;;;;;5051386;28;20171;-50
2022/09/06 01:55:43;;;;;;;8.93;4.07;;;19.60;99.90;;;;;;5040739;28;20269;-51
2022/09/06 01:58:19;;;;;;;11.32;4.70;;;19.50;99.90;;;;;;5051707;28;20249;-51
2022/09/06 02:00:58;;;;;;;5.60;4.05;;;19.40;99.90;;;;;;5051303;28;20661;-50
2022/09/06 02:03:35;;;;;;;9.52;4.30;;;19.40;99.90;;;;;;5051273;28;20174;-51
2022/09/06 02:06:10;;;;;;;9.23;4.57;;;19.50;99.90;;;;;;5051221;28;20173;-51
2022/09/06 02:08:59;;;;;;;6.63;4.43;;;19.50;99.90;;;;;;5051231;28;20176;-50
2022/09/06 02:11:28;;;;;;;7.72;4.65;;;19.50;99.90;;;;;;5053770;28;20228;-50
2022/09/06 02:14:00;;;;;;;5.85;4.63;;;19.50;99.90;;;;;;5053894;28;20166;-50
2022/09/06 02:16:28;;;;;;;4.85;4.15;;;19.60;99.90;;;;;;5054787;28;20249;-50
2022/09/06 02:19:02;;;;;;;4.88;4.38;;;19.50;99.90;;;;;;5055168;28;20197;-50
2022/09/06 02:21:33;;;;;;;9.15;4.80;;;19.60;99.90;;;;;;5054703;28;20177;-50
2022/09/06 02:24:04;;;;;;;13.55;4.80;;;19.70;99.90;;;;;;5054361;28;20174;-50
2022/09/06 02:26:34;;;;;;;7.40;5.03;;;19.70;99.90;;;;;;5054640;28;20170;-51
2022/09/06 02:29:00;;;;;;;8.02;4.53;;;19.60;99.90;;;;;;5054646;28;20190;-50
2022/09/06 02:31:34;;;;;;;8.10;5.50;;;19.70;99.90;;;;;;5054684;28;20181;-50
2022/09/06 02:34:00;;;;;;;6.10;4.85;;;19.70;99.90;;;;;;5054623;28;20167;-50
2022/09/06 02:36:26;;;;;;;11.40;5.13;;;19.70;99.90;;;;;;5054535;28;20688;-49
2022/09/06 02:38:53;;;;;;;6.80;5.07;;;19.80;99.90;;;;;;5054779;28;20170;-49
2022/09/06 02:41:21;;;;;;;10.90;5.00;;;19.80;99.90;;;;;;5054613;28;20166;-50
2022/09/06 02:43:47;;;;;;;12.23;5.22;;;19.80;99.90;;;;;;5054335;28;20534;-50
2022/09/06 02:46:13;;;;;;;5.18;4.68;;;19.90;99.90;;;;;;5054370;28;20163;-50
2022/09/06 02:48:39;;;;;;;6.22;4.57;;;19.90;99.90;;;;;;5054630;28;20568;-50
2022/09/06 02:51:06;;;;;;;8.60;5.40;;;19.80;99.90;;;;;;5054277;28;20174;-50
2022/09/06 02:53:32;;;;;;;11.85;8.38;;;19.70;99.90;;;;;;5054302;28;20167;-50
2022/09/06 02:55:58;;;;;;;8.07;4.53;;;19.70;99.90;;;;;;5054446;28;20175;-51
2022/09/06 02:58:24;;;;;;;5.43;4.28;;;19.70;99.90;;;;;;5054235;28;20166;-50
2022/09/06 03:00:51;;;;;;;7.03;4.85;;;19.70;99.90;;;;;;5054181;28;20534;-51
2022/09/06 03:03:18;;;;;;;9.93;5.20;;;19.70;99.90;;;;;;5054264;28;20185;-50
2022/09/06 03:05:48;;;;;;;7.22;4.72;;;19.60;99.90;;;;;;5053616;28;20261;-51
2022/09/06 03:08:15;;;;;;;8.38;4.72;;;19.60;99.90;;;;;;5054217;28;20171;-50
2022/09/06 03:10:46;;;;;;;6.55;5.00;;;19.60;99.90;;;;;;5054186;28;20287;-50
2022/09/06 03:13:12;;;;;;;6.15;5.20;;;19.60;99.90;;;;;;5054310;28;20167;-50
2022/09/06 03:15:37;;;;;;;7.15;4.63;;;19.60;99.90;;;;;;5053775;28;20224;-51
2022/09/06 03:18:03;;;;;;;7.10;5.13;;;19.60;99.90;;;;;;5053876;28;20194;-51
2022/09/06 03:20:28;;;;;;;10.40;4.63;;;19.70;99.90;;;;;;5053592;28;20170;-50
2022/09/06 03:22:54;;;;;;;7.75;5.43;;;19.70;99.90;;;;;;5053329;28;20654;-50
2022/09/06 03:25:20;;;;;;;8.40;5.18;;;19.60;99.90;;;;;;5053877;28;20178;-50
2022/09/06 03:27:46;;;;;;;11.18;5.55;;;19.50;99.90;;;;;;5053765;28;20246;-50
2022/09/06 03:30:12;;;;;;;9.38;5.57;;;19.50;99.90;;;;;;5053771;28;20299;-50
2022/09/06 03:32:37;;;;;;;9.15;5.55;;;19.50;99.90;;;;;;5053794;28;20598;-51
2022/09/06 03:35:03;;;;;;;14.23;6.15;;;19.50;99.90;;;;;;5053558;28;20651;-51
2022/09/06 03:37:29;;;;;;;10.27;5.78;;;19.40;99.90;;;;;;5053480;28;20182;-51
2022/09/06 03:39:54;;;;;;;7.82;5.10;;;19.40;99.90;;;;;;5053377;28;20539;-51
2022/09/06 03:42:20;;;;;;;11.20;8.15;;;19.40;99.90;;;;;;5053404;28;20163;-51
2022/09/06 03:44:46;;;;;;;13.43;7.18;;;19.40;99.90;;;;;;5053550;28;20711;-51
2022/09/06 03:47:12;;;;;;;9.80;5.80;;;19.40;99.90;;;;;;5053461;28;20174;-51
2022/09/06 03:49:38;;;;;;;9.93;5.55;;;19.30;99.90;;;;;;5053397;28;20349;-51
2022/09/06 03:52:04;;;;;;;13.65;7.95;;;19.30;99.90;;;;;;5053112;28;20181;-51
2022/09/06 03:54:29;;;;;;;8.88;5.72;;;19.30;99.90;;;;;;5053371;28;20630;-51
2022/09/06 03:56:56;;;;;;;8.10;6.32;;;19.20;99.90;;;;;;5053293;28;20185;-51
2022/09/06 03:59:21;;;;;;;9.98;5.85;;;19.30;99.90;;;;;;5053195;28;20177;-51
2022/09/06 04:01:47;;;;;;;12.50;6.90;;;19.30;99.90;;;;;;5053005;28;20174;-51
2022/09/06 04:04:12;;;;;;;9.98;6.65;;;19.10;99.90;;;;;;5052824;28;20213;-50
2022/09/06 04:06:38;;;;;;;8.98;6.70;;;19.20;99.90;;;;;;5052881;28;20166;-51
2022/09/06 04:09:03;;;;;;;10.15;5.88;;;19.20;99.90;;;;;;5052736;28;20201;-50
2022/09/06 04:11:29;;;;;;;8.10;5.50;;;19.20;99.90;;;;;;5052797;28;20253;-50
2022/09/06 04:13:54;;;;;;;8.80;5.60;;;19.20;99.90;;;;;;5052797;28;20162;-50
2022/09/06 04:16:20;;;;;;;9.52;6.10;;;19.10;99.90;;;;;;5052502;28;20755;-50
2022/09/06 04:18:46;;;;;;;8.57;5.57;;;19.10;99.90;;;;;;5052636;28;20630;-50
2022/09/06 04:21:11;;;;;;;12.25;6.65;;;19.00;99.90;;;;;;5053099;28;20188;-50
2022/09/06 04:23:37;;;;;;;9.13;6.55;;;19.00;99.90;;;;;;5052542;28;20171;-50
2022/09/06 04:26:03;;;;;;;7.28;5.85;;;19.00;99.90;;;;;;5052514;28;20163;-49
2022/09/06 04:28:29;;;;;;;12.40;6.70;;;18.90;99.90;;;;;;5052321;28;20301;-50
2022/09/06 04:30:58;;;;;;;8.05;5.78;;;18.90;99.90;;;;;;5052369;28;20261;-50
2022/09/06 04:33:25;;;;;;;9.60;5.90;;;18.80;99.90;;;;;;5051670;28;20162;-50
2022/09/06 04:35:55;;;;;;;9.18;5.82;;;18.80;99.90;;;;;;5052405;28;20171;-50
2022/09/06 04:38:22;;;;;;;9.60;6.05;;;18.70;99.90;;;;;;5051930;28;20163;-51
2022/09/06 04:40:47;;;;;;;11.15;7.15;;;18.80;99.90;;;;;;5051844;28;20165;-50
2022/09/06 04:43:13;;;;;;;8.88;6.03;;;18.80;99.90;;;;;;5052167;28;20178;-51
2022/09/06 04:45:38;;;;;;;11.43;6.20;;;18.80;99.90;;;;;;5052478;28;20174;-51
2022/09/06 04:48:04;;;;;;;8.23;5.97;;;18.80;99.90;;;;;;5052311;28;20270;-50
2022/09/06 04:50:29;;;;;;;14.00;6.00;;;18.80;99.90;;;;;;5051961;28;20546;-51
2022/09/06 04:52:55;;;;;;;17.45;8.85;;;18.80;99.90;;;;;;5051913;28;20167;-51
2022/09/06 04:55:21;;;;;;;7.07;6.38;;;18.80;99.90;;;;;;5051848;28;20178;-50
2022/09/06 04:57:46;;;;;;;15.18;8.18;;;18.80;99.90;;;;;;5052075;28;20225;-51
2022/09/06 05:00:12;;;;;;;8.95;6.75;;;18.80;99.90;;;;;;5051833;28;20216;-50
2022/09/06 05:02:38;;;;;;;23.05;14.10;;;18.80;99.90;;;;;;5052348;28;20179;-49
2022/09/06 05:05:04;;;;;;;7.32;6.00;;;19.00;99.90;;;;;;5051606;28;20707;-50
2022/09/06 05:07:29;;;;;;;8.82;6.05;;;18.90;99.90;;;;;;5051691;28;20174;-50
2022/09/06 05:09:55;;;;;;;13.23;6.25;;;18.80;99.90;;;;;;5051675;28;20252;-50
2022/09/06 05:12:21;;;;;;;11.80;6.80;;;18.80;99.90;;;;;;5051790;28;20166;-50
2022/09/06 05:14:46;;;;;;;11.55;6.05;;;18.80;99.90;;;;;;5051636;28;20220;-51
2022/09/06 05:17:13;;;;;;;8.60;6.90;;;18.80;99.90;;;;;;5051875;28;20640;-50
2022/09/06 05:19:39;;;;;;;13.55;7.70;;;18.80;99.90;;;;;;5052273;28;20264;-52
2022/09/06 05:22:05;;;;;;;10.77;6.93;;;18.80;99.90;;;;;;5051964;28;20189;-51
2022/09/06 05:24:31;;;;;;;15.48;9.35;;;18.80;99.90;;;;;;5051527;28;20642;-50
2022/09/06 05:26:57;;;;;;;13.00;8.00;;;18.90;99.90;;;;;;5051580;28;20646;-50
2022/09/06 05:29:23;;;;;;;11.00;6.13;;;18.90;99.90;;;;;;5051476;28;20602;-50
2022/09/06 05:31:49;;;;;;;11.52;7.00;;;18.80;99.90;;;;;;5051508;28;20163;-51
2022/09/06 05:34:14;;;;;;;11.70;6.85;;;18.80;99.90;;;;;;5051877;28;20175;-51
2022/09/06 05:36:40;;;;;;;12.23;7.30;;;18.90;99.90;;;;;;5052015;28;20258;-51
2022/09/06 05:39:06;;;;;;;12.82;7.55;;;18.90;99.90;;;;;;5051252;28;20657;-50
2022/09/06 05:41:32;;;;;;;11.43;8.15;;;18.90;99.90;;;;;;5051607;28;20178;-51
2022/09/06 05:43:58;;;;;;;12.80;7.85;;;19.00;99.90;;;;;;5050443;28;20166;-50
2022/09/06 05:46:25;;;;;;;15.38;7.40;;;19.00;99.90;;;;;;5055510;28;20174;-51
2022/09/06 05:48:56;;;;;;;13.68;8.23;;;18.90;99.90;;;;;;5055250;28;20674;-51
2022/09/06 05:51:23;;;;;;;11.93;6.78;;;19.00;99.90;;;;;;5055623;28;20178;-51
2022/09/06 05:53:48;;;;;;;9.60;6.72;;;19.00;99.90;;;;;;5055365;28;20159;-51
2022/09/06 05:56:15;;;;;;;10.68;7.38;;;19.10;99.90;;;;;;5055537;28;20312;-51
2022/09/06 05:58:41;;;;;;;17.58;8.02;;;19.20;99.90;;;;;;5055630;28;20155;-51
2022/09/06 06:01:17;;;;;;;15.55;8.95;;;19.20;99.90;;;;;;5055477;28;20171;-51
2022/09/06 06:03:50;;;;;;;11.85;6.97;;;19.20;99.90;;;;;;5055292;28;20170;-51
2022/09/06 06:06:15;;;;;;;8.05;6.95;;;19.30;99.90;;;;;;5055028;28;20220;-50
2022/09/06 06:08:41;;;;;;;33.78;16.55;;;19.40;99.90;;;;;;5055389;28;20159;-50
2022/09/06 06:11:06;;;;;;;13.88;9.68;;;19.40;99.90;;;;;;5055434;28;20600;-51
2022/09/06 06:13:35;;;;;;;17.67;10.82;;;19.60;99.90;;;;;;5053757;28;20581;-50
2022/09/06 06:16:02;;;;;;;10.45;7.57;;;19.60;99.90;;;;;;5054734;28;20226;-50
2022/09/06 06:18:27;;;;;;;11.60;7.03;;;19.60;99.90;;;;;;5055233;28;20181;-50
2022/09/06 06:21:08;;;;;;;10.68;6.60;;;19.70;99.90;;;;;;5054876;28;20527;-50
2022/09/06 06:23:34;;;;;;;10.15;6.32;;;19.80;99.90;;;;;;5054800;28;20626;-50
2022/09/06 06:26:00;;;;;;;12.73;7.38;;;19.80;99.90;;;;;;5054735;28;20286;-50
2022/09/06 06:28:26;;;;;;;8.07;7.22;;;19.90;99.90;;;;;;5054774;28;20194;-50
2022/09/06 06:30:53;;;;;;;11.05;8.13;;;20.00;99.90;;;;;;5054572;28;20214;-51
2022/09/06 06:33:19;;;;;;;11.00;8.07;;;20.10;99.90;;;;;;5054901;28;20178;-50
2022/09/06 06:36:03;;;;;;;12.77;7.50;;;20.20;99.90;;;;;;5054870;28;20175;-50
2022/09/06 06:38:34;;;;;;;10.75;7.00;;;20.30;99.90;;;;;;5054789;28;20523;-50
2022/09/06 06:41:00;;;;;;;7.53;6.55;;;20.40;99.90;;;;;;5054549;28;20677;-50
2022/09/06 06:43:27;;;;;;;9.70;7.00;;;20.50;99.90;;;;;;5054417;28;20178;-50
2022/09/06 06:45:53;;;;;;;16.95;6.93;;;20.60;99.90;;;;;;5054363;28;20166;-50
2022/09/06 06:48:19;;;;;;;10.50;6.78;;;20.70;99.90;;;;;;5054368;28;20171;-50
2022/09/06 06:50:45;;;;;;;9.18;6.82;;;20.80;99.90;;;;;;5054267;28;20682;-50
2022/09/06 06:53:10;;;;;;;12.32;7.75;;;20.90;99.90;;;;;;5054888;28;20182;-50
2022/09/06 06:55:36;;;;;;;10.70;6.63;;;21.00;99.90;;;;;;5054325;28;20223;-51
2022/09/06 06:58:02;;;;;;;10.40;6.47;;;21.00;99.90;;;;;;5053906;28;20167;-49
2022/09/06 07:00:28;;;;;;;7.30;6.20;;;21.20;99.90;;;;;;5054470;28;20178;-50
2022/09/06 07:02:55;;;;;;;7.93;6.80;;;21.20;99.90;;;;;;5054116;28;20304;-50
2022/09/06 07:05:21;;;;;;;10.60;6.13;;;21.30;99.90;;;;;;5054100;28;20573;-50
2022/09/06 07:07:47;;;;;;;12.85;6.50;;;21.40;99.90;;;;;;5054284;28;20232;-49
2022/09/06 07:10:12;;;;;;;12.80;6.38;;;21.50;99.90;;;;;;5053947;28;20238;-50
2022/09/06 07:12:38;;;;;;;12.80;7.28;;;21.50;99.90;;;;;;5054290;28;20630;-50
2022/09/06 07:15:04;;;;;;;9.90;5.40;;;21.60;99.90;;;;;;5053873;28;20218;-50
2022/09/06 07:17:30;;;;;;;9.30;6.32;;;21.60;99.90;;;;;;5053786;28;20181;-49
2022/09/06 07:19:55;;;;;;;9.88;7.13;;;21.70;99.90;;;;;;5053863;28;20249;-50
2022/09/06 07:22:21;;;;;;;6.72;5.85;;;21.70;99.90;;;;;;5053680;28;20167;-50
2022/09/06 07:24:46;;;;;;;8.15;6.72;;;21.70;99.90;;;;;;5053829;28;20179;-48
2022/09/06 07:27:12;;;;;;;10.20;7.38;;;21.80;99.90;;;;;;5054224;28;20669;-49
2022/09/06 07:29:37;;;;;;;9.00;6.13;;;21.90;99.90;;;;;;5054050;28;20572;-51
2022/09/06 07:32:03;;;;;;;10.07;7.00;;;22.00;99.90;;;;;;5053515;28;20171;-52
2022/09/06 07:34:28;;;;;;;8.75;5.93;;;22.10;99.90;;;;;;5053380;28;20179;-52
2022/09/06 07:36:55;;;;;;;8.27;6.13;;;22.20;99.90;;;;;;5053460;28;20178;-51
2022/09/06 07:39:21;;;;;;;7.47;6.68;;;22.40;99.90;;;;;;5053374;28;20196;-51
2022/09/06 07:41:47;;;;;;;8.18;5.65;;;22.40;99.90;;;;;;5053351;28;20246;-51
2022/09/06 07:44:12;;;;;;;6.53;5.60;;;22.50;99.90;;;;;;5053398;28;20174;-51
2022/09/06 07:46:38;;;;;;;11.77;5.50;;;22.50;99.90;;;;;;5053633;28;20534;-51
2022/09/06 07:49:04;;;;;;;9.85;5.95;;;22.50;99.90;;;;;;5053253;28;20209;-51
2022/09/06 07:51:30;;;;;;;7.82;6.07;;;22.60;99.90;;;;;;5053230;28;20695;-51
2022/09/06 07:53:56;;;;;;;9.40;6.43;;;22.70;99.90;;;;;;5053399;28;20191;-50
2022/09/06 07:56:23;;;;;;;10.35;6.43;;;22.80;99.90;;;;;;5052979;28;20194;-51
2022/09/06 07:58:50;;;;;;;6.55;5.93;;;22.90;99.90;;;;;;5053382;28;20171;-51
2022/09/06 08:01:29;;;;;;;7.72;6.07;;;22.90;99.90;;;;;;5053305;28;20162;-50
2022/09/06 08:03:57;;;;;;;11.90;6.82;;;22.90;99.90;;;;;;5053205;28;20177;-50
2022/09/06 08:06:23;;;;;;;7.60;6.30;;;23.10;99.90;;;;;;5053192;28;20246;-51
2022/09/06 08:08:49;;;;;;;8.63;6.13;;;23.30;99.90;;;;;;5052006;28;20166;-51
2022/09/06 08:11:16;;;;;;;7.68;5.45;;;23.40;99.90;;;;;;5052821;28;20639;-51
2022/09/06 08:13:42;;;;;;;6.05;4.95;;;23.50;99.90;;;;;;5053408;28;20190;-51
2022/09/06 08:16:10;;;;;;;7.53;4.78;;;23.40;99.90;;;;;;5052966;28;20261;-51
2022/09/06 08:18:37;;;;;;;7.40;5.10;;;23.50;99.90;;;;;;5052730;28;20163;-51
2022/09/06 08:21:13;;;;;;;6.65;4.72;;;23.70;99.90;;;;;;5051734;28;20246;-51
2022/09/06 08:23:43;;;;;;;6.57;4.82;;;23.70;99.90;;;;;;5051734;28;20264;-51
2022/09/06 08:26:09;;;;;;;5.72;4.35;;;23.90;99.90;;;;;;5052824;28;20584;-51
2022/09/06 08:28:34;;;;;;;4.82;4.22;;;23.90;99.90;;;;;;5052505;28;20162;-51
2022/09/06 08:31:11;;;;;;;10.20;4.40;;;24.10;99.90;;;;;;5052360;28;20568;-52
2022/09/06 08:33:38;;;;;;;6.18;4.45;;;24.20;99.90;;;;;;5052849;28;20170;-51
2022/09/06 08:36:05;;;;;;;6.03;3.65;;;24.20;99.90;;;;;;5052360;28;20171;-52
2022/09/06 08:38:31;;;;;;;5.88;4.00;;;24.40;99.90;;;;;;5052353;28;20189;-51
2022/09/06 08:41:13;;;;;;;10.18;4.40;;;24.50;99.90;;;;;;5052376;28;20198;-51
2022/09/06 08:44:06;;;;;;;6.93;3.80;;;24.60;99.90;;;;;;5052861;28;20620;-52
2022/09/06 08:46:45;;;;;;;5.63;3.67;;;24.50;99.90;;;;;;5050547;28;20619;-52
2022/09/06 08:49:11;;;;;;;3.80;3.00;;;24.80;99.90;;;;;;5052420;28;20194;-51
2022/09/06 08:52:02;;;;;;;5.70;3.22;;;24.90;99.90;;;;;;5052081;28;20193;-51
2022/09/06 08:54:45;;;;;;;7.70;3.08;;;24.90;99.90;;;;;;5051984;28;20170;-52
2022/09/06 08:57:43;;;;;;;4.43;2.90;;;25.00;99.90;;;;;;5052287;28;20631;-52
2022/09/06 09:00:11;;;;;;;5.13;2.88;;;25.00;99.90;;;;;;5052320;28;20752;-52
2022/09/06 09:03:07;;;;;;;6.60;2.80;;;25.20;99.90;;;;;;5052066;28;20642;-52
2022/09/06 09:05:36;;;;;;;4.45;2.40;;;25.20;99.90;;;;;;5051882;28;20163;-52
2022/09/06 09:08:15;;;;;;;2.42;2.15;;;25.30;99.90;;;;;;5051782;28;20173;-51
2022/09/06 09:10:51;;;;;;;5.03;2.30;;;25.20;99.90;;;;;;5052190;28;20230;-51
2022/09/06 09:13:32;;;;;;;4.50;2.70;;;25.50;99.90;;;;;;5051946;28;20169;-51
2022/09/06 09:15:58;;;;;;;2.58;2.38;;;25.60;99.90;;;;;;5051749;28;20228;-51
2022/09/06 09:18:31;;;;;;;3.10;2.05;;;25.60;99.90;;;;;;5051857;28;20174;-51
2022/09/06 09:20:57;;;;;;;3.63;2.40;;;25.70;99.90;;;;;;5051719;28;20171;-51
2022/09/06 09:23:23;;;;;;;3.85;2.55;;;25.80;99.90;;;;;;5051775;28;20194;-51
2022/09/06 09:25:51;;;;;;;5.93;2.42;;;26.00;99.90;;;;;;5051746;28;20578;-51
2022/09/06 09:28:20;;;;;;;6.25;2.17;;;26.00;99.90;;;;;;5051748;28;20166;-51
2022/09/06 09:30:52;;;;;;;5.75;2.08;;;25.90;99.90;;;;;;5051588;28;20202;-51
2022/09/06 09:33:32;;;;;;;5.90;2.10;;;26.00;99.90;;;;;;5051846;28;20185;-51
2022/09/06 09:36:01;;;;;;;5.20;2.10;;;26.10;99.90;;;;;;5051803;28;20252;-51
2022/09/06 09:38:29;;;;;;;5.05;2.05;;;26.10;99.90;;;;;;5051667;28;20162;-51
2022/09/06 09:41:06;;;;;;;5.05;2.05;;;26.40;99.90;;;;;;5051650;28;20205;-51
2022/09/06 09:43:53;;;;;;;5.30;2.65;;;26.50;99.90;;;;;;5051877;28;20240;-51
2022/09/06 09:46:21;;;;;;;5.03;2.40;;;26.50;99.90;;;;;;5051483;28;20170;-51
2022/09/06 09:49:09;;;;;;;2.42;2.10;;;26.50;99.90;;;;;;5051482;28;20678;-51
2022/09/06 09:52:02;;;;;;;6.70;2.20;;;26.50;99.90;;;;;;5051507;28;20257;-51
2022/09/06 09:54:36;;;;;;;3.78;2.10;;;26.60;99.90;;;;;;5050155;28;20175;-51
2022/09/06 09:57:10;;;;;;;2.63;1.77;;;26.70;99.90;;;;;;5051461;28;20161;-51
2022/09/06 09:59:43;;;;;;;4.18;1.80;;;26.80;99.90;;;;;;5051296;28;20170;-51
2022/09/06 10:02:38;;;;;;;3.78;1.83;;;27.00;99.90;;;;;;5051705;28;20166;-51
2022/09/06 10:05:24;;;;;;;4.45;2.05;;;27.10;99.90;;;;;;5051005;28;20655;-51
2022/09/06 10:07:57;;;;;;;3.60;2.28;;;27.00;99.90;;;;;;5050967;28;20261;-51
2022/09/06 10:10:23;;;;;;;4.32;2.10;;;27.10;99.90;;;;;;5051176;28;20234;-51
2022/09/06 10:13:13;;;;;;;3.33;1.80;;;27.20;99.90;;;;;;5051246;28;20173;-51
2022/09/06 10:15:39;;;;;;;3.20;1.83;;;27.50;99.90;;;;;;5051473;28;20689;-51
2022/09/06 10:18:05;;;;;;;3.92;1.98;;;27.40;99.90;;;;;;5051192;28;20174;-52
2022/09/06 10:20:42;;;;;;;3.50;2.25;;;27.50;99.90;;;;;;5051491;28;20308;-51
2022/09/06 10:23:29;;;;;;;4.13;2.08;;;27.60;99.90;;;;;;5051541;28;20169;-51
2022/09/06 10:26:05;;;;;;;5.57;2.30;;;27.60;99.90;;;;;;5051090;28;20580;-51
2022/09/06 10:28:35;;;;;;;2.35;2.10;;;27.70;99.90;;;;;;5051391;28;20166;-52
2022/09/06 10:31:26;;;;;;;4.75;1.98;;;27.70;99.90;;;;;;5051342;28;20325;-51
2022/09/06 10:34:09;;;;;;;3.67;1.75;;;27.80;99.90;;;;;;5054929;28;20252;-51
2022/09/06 10:36:37;;;;;;;3.15;1.92;;;28.00;99.90;;;;;;5054594;28;20185;-51
2022/09/06 10:39:27;;;;;;;3.95;1.80;;;28.00;99.90;;;;;;5054534;28;20634;-51
2022/09/06 10:42:12;;;;;;;2.65;2.00;;;28.10;99.90;;;;;;5054835;28;20223;-51
2022/09/06 10:45:15;;;;;;;3.53;1.80;;;28.40;99.90;;;;;;5054805;28;20219;-51
2022/09/06 10:47:56;;;;;;;3.47;1.80;;;28.40;99.90;;;;;;5054989;28;20173;-51
2022/09/06 10:50:48;;;;;;;2.20;1.83;;;28.40;99.90;;;;;;5054539;28;20224;-51
2022/09/06 10:53:34;;;;;;;3.15;2.25;;;28.40;99.90;;;;;;5054319;28;20162;-51
2022/09/06 10:56:16;;;;;;;7.50;1.83;;;28.40;99.90;;;;;;5052575;28;20170;-51
2022/09/06 10:58:56;;;;;;;3.72;2.05;;;28.50;99.90;;;;;;5054205;28;20193;-51
2022/09/06 11:01:33;;;;;;;4.40;2.03;;;28.60;99.90;;;;;;5054176;28;20169;-51
2022/09/06 11:03:59;;;;;;;10.63;3.83;;;28.70;99.90;;;;;;5054318;28;20174;-51
2022/09/06 11:06:32;;;;;;;3.42;2.20;;;28.90;99.90;;;;;;5054080;28;20622;-51
2022/09/06 11:09:09;;;;;;;4.07;2.45;;;28.60;99.90;;;;;;5053950;28;20204;-51
2022/09/06 11:11:43;;;;;;;7.88;2.95;;;28.70;99.90;;;;;;5053894;28;20252;-51
2022/09/06 11:14:12;;;;;;;4.43;2.00;;;29.00;99.90;;;;;;5054322;28;20172;-50
2022/09/06 11:16:56;;;;;;;4.18;1.83;;;29.00;99.90;;;;;;5054341;28;20220;-51
2022/09/06 11:19:31;;;;;;;5.82;2.17;;;28.90;99.90;;;;;;5054069;28;20255;-51
2022/09/06 11:22:32;;;;;;;2.20;1.80;;;29.00;99.90;;;;;;5053723;28;20236;-51
2022/09/06 11:25:15;;;;;;;4.63;2.03;;;29.10;99.90;;;;;;5044891;28;20182;-51
2022/09/06 11:27:46;;;;;;;3.80;2.33;;;29.30;99.90;;;;;;5053840;28;20206;-51
2022/09/06 11:30:16;;;;;;;5.30;2.33;;;29.30;99.90;;;;;;5053537;28;20736;-52
2022/09/06 11:32:49;;;;;;;3.47;1.90;;;29.50;99.90;;;;;;5053451;28;20587;-51
2022/09/06 11:35:23;;;;;;;3.33;2.10;;;29.30;99.90;;;;;;5053739;28;20193;-51
2022/09/06 11:37:59;;;;;;;5.47;2.60;;;29.40;99.90;;;;;;5053458;28;20162;-51
2022/09/06 11:40:28;;;;;;;3.67;1.83;;;29.50;99.90;;;;;;5053407;28;20184;-52
2022/09/06 11:42:53;;;;;;;5.13;1.80;;;29.50;99.90;;;;;;5053115;28;20162;-52
2022/09/06 11:45:39;;;;;;;5.45;1.92;;;29.50;99.90;;;;;;5053330;28;20181;-51
2022/09/06 11:48:22;;;;;;;2.67;1.90;;;29.30;99.90;;;;;;5053264;28;20186;-51
2022/09/06 11:51:00;;;;;;;6.18;2.13;;;29.50;99.90;;;;;;5053157;28;20213;-51
2022/09/06 11:53:53;;;;;;;3.85;2.22;;;29.50;99.90;;;;;;5053158;28;20173;-51
2022/09/06 11:56:35;;;;;;;4.53;2.33;;;29.50;99.90;;;;;;5053093;28;20633;-51
2022/09/06 11:59:10;;;;;;;4.53;2.10;;;29.60;99.90;;;;;;5053058;28;20162;-51
2022/09/06 12:01:37;;;;;;;3.28;2.10;;;29.60;99.90;;;;;;5052994;28;20169;-51
2022/09/06 12:04:05;;;;;;;3.85;2.05;;;29.70;99.90;;;;;;5052952;28;20211;-51
2022/09/06 12:06:39;;;;;;;5.68;2.33;;;29.70;99.90;;;;;;5052931;28;20177;-51
2022/09/06 12:09:31;;;;;;;3.83;2.30;;;29.50;99.90;;;;;;5052979;28;20288;-52
2022/09/06 12:11:58;;;;;;;5.32;1.98;;;29.40;99.90;;;;;;5053035;28;20171;-51
2022/09/06 12:14:24;;;;;;;6.18;2.10;;;29.60;99.90;;;;;;5052668;28;20253;-50
2022/09/06 12:17:03;;;;;;;5.60;1.83;;;29.70;99.90;;;;;;5052741;28;20261;-50
2022/09/06 12:19:58;;;;;;;3.28;2.13;;;29.80;99.90;;;;;;5052893;28;20181;-51
2022/09/06 12:22:32;;;;;;;3.70;1.98;;;29.80;99.90;;;;;;5052593;28;20630;-51
2022/09/06 12:25:00;;;;;;;3.75;2.13;;;29.70;99.90;;;;;;5052798;28;20256;-51
2022/09/06 12:27:33;;;;;;;2.60;2.17;;;29.80;99.90;;;;;;5052767;28;20287;-51
2022/09/06 12:30:11;;;;;;;5.97;2.35;;;29.70;99.90;;;;;;5052609;28;20210;-50
2022/09/06 12:32:39;;;;;;;2.95;2.08;;;29.70;99.90;;;;;;5051451;28;20652;-51
2022/09/06 12:35:16;;;;;;;5.85;2.20;;;29.70;99.90;;;;;;5052350;28;20212;-51
2022/09/06 12:38:12;;;;;;;4.63;2.30;;;29.80;99.90;;;;;;5052263;28;20158;-51
2022/09/06 12:40:44;;;;;;;9.85;2.40;;;29.80;99.90;;;;;;5052062;28;20522;-51
2022/09/06 12:43:12;;;;;;;2.05;1.88;;;30.20;99.90;;;;;;5052543;28;20572;-51
2022/09/06 12:45:42;;;;;;;3.22;2.08;;;30.30;99.90;;;;;;5052782;28;20177;-51
2022/09/06 12:48:10;;;;;;;5.20;2.00;;;30.50;99.90;;;;;;5052487;28;20170;-51
2022/09/06 12:50:36;;;;;;;4.40;1.80;;;30.60;99.90;;;;;;5052409;28;20208;-51
2022/09/06 12:53:15;;;;;;;4.55;2.00;;;30.70;99.90;;;;;;5051816;28;20162;-51
2022/09/06 12:55:41;;;;;;;4.82;2.13;;;30.70;99.90;;;;;;5051409;28;20249;-52
2022/09/06 12:58:09;;;;;;;2.40;1.80;;;30.70;99.90;;;;;;5052450;28;20669;-51
2022/09/06 13:00:42;;;;;;;9.20;2.47;;;30.60;99.90;;;;;;5051940;28;20676;-52
2022/09/06 13:03:24;;;;;;;6.28;1.98;;;30.60;99.90;;;;;;5052368;28;20173;-51